PWSweather.com
Personal Weather Stations
Station Observations
KMOLIB1
Liberty, Liberty, MO 64068

LibertyLiberty, MO 64068

Lat: 39.24, Lon: -94.45

Elevation: 866

Station Type:

High Low Average
Temperature 92.0°F33.3°C 69.0°F20.6°C 79.8°F26.6°C
Dew Point -22.0°F-30.0°C -35.7°F-37.6°C -29.2°F-34.0°C
Winds 15.0 mph 24.1 kmh Calm Calm 3.0 mph SSE4.8 kmh SSE
Wind Gusts 17.0 mph27.4 kmh 2.0 mph3.2 kmh 14.0 mph22.5 kmh
Humidity 1% 1% 1%
Pressure 210.53 in7129.4 mb 210.36 in7123.6 mb -
Precipitation 0.00 in0.0 mm - -
Hour Temp Dew Point Humidity Winds Wind Gusts Pressure Precip Precip Rate Daily Precip Total
12:00 AM 76.0°F24.4°C -31.5°F-35.3°C 1% Calm Calm -- 210.51 in7128.7 mb 0.00 in0.0 mm 0.00 in0.0 mm 0.00 in0.0 mm
12:05 AM 75.0°F23.9°C -32.1°F-35.6°C 1% 1.0 mph WSW1.6 kmh WSW 7.0 mph11.3 kmh 210.51 in7128.7 mb 0.00 in0.0 mm 0.00 in0.0 mm 0.00 in0.0 mm
12:10 AM 75.0°F23.9°C -32.1°F-35.6°C 1% Calm Calm 7.0 mph11.3 kmh 210.51 in7128.7 mb 0.00 in0.0 mm 0.00 in0.0 mm 0.00 in0.0 mm
12:15 AM 75.0°F23.9°C -32.1°F-35.6°C 1% Calm Calm 7.0 mph11.3 kmh 210.51 in7128.7 mb 0.00 in0.0 mm 0.00 in0.0 mm 0.00 in0.0 mm
12:20 AM 75.0°F23.9°C -32.1°F-35.6°C 1% 2.0 mph SW3.2 kmh SW 7.0 mph11.3 kmh 210.51 in7128.7 mb 0.00 in0.0 mm 0.00 in0.0 mm 0.00 in0.0 mm
12:25 AM 75.0°F23.9°C -32.1°F-35.6°C 1% 2.0 mph NE3.2 kmh NE 10.0 mph16.1 kmh 210.51 in7128.7 mb 0.00 in0.0 mm 0.00 in0.0 mm 0.00 in0.0 mm
12:30 AM 75.0°F23.9°C -32.1°F-35.6°C 1% 2.0 mph W3.2 kmh W 10.0 mph16.1 kmh 210.51 in7128.7 mb 0.00 in0.0 mm 0.00 in0.0 mm 0.00 in0.0 mm
12:35 AM 75.0°F23.9°C -32.1°F-35.6°C 1% Calm Calm 10.0 mph16.1 kmh 210.51 in7128.7 mb 0.00 in0.0 mm 0.00 in0.0 mm 0.00 in0.0 mm
12:40 AM 75.0°F23.9°C -32.1°F-35.6°C 1% 1.0 mph SSE1.6 kmh SSE 10.0 mph16.1 kmh 210.50 in7128.4 mb 0.00 in0.0 mm 0.00 in0.0 mm 0.00 in0.0 mm
12:45 AM 75.0°F23.9°C -32.1°F-35.6°C 1% 3.0 mph NE4.8 kmh NE 10.0 mph16.1 kmh 210.50 in7128.4 mb 0.00 in0.0 mm 0.00 in0.0 mm 0.00 in0.0 mm
12:50 AM 74.0°F23.3°C -32.7°F-35.9°C 1% 2.0 mph NNE3.2 kmh NNE 10.0 mph16.1 kmh 210.50 in7128.4 mb 0.00 in0.0 mm 0.00 in0.0 mm 0.00 in0.0 mm
12:55 AM 74.0°F23.3°C -32.7°F-35.9°C 1% 2.0 mph NW3.2 kmh NW 10.0 mph16.1 kmh 210.50 in7128.4 mb 0.00 in0.0 mm 0.00 in0.0 mm 0.00 in0.0 mm
01:00 AM 74.0°F23.3°C -32.7°F-35.9°C 1% 1.0 mph SW1.6 kmh SW 10.0 mph16.1 kmh 210.50 in7128.4 mb 0.00 in0.0 mm 0.00 in0.0 mm 0.00 in0.0 mm
01:05 AM 74.0°F23.3°C -32.7°F-35.9°C 1% Calm Calm 10.0 mph16.1 kmh 210.50 in7128.4 mb 0.00 in0.0 mm 0.00 in0.0 mm 0.00 in0.0 mm
01:10 AM 74.0°F23.3°C -32.7°F-35.9°C 1% 1.0 mph S1.6 kmh S 10.0 mph16.1 kmh 210.50 in7128.4 mb 0.00 in0.0 mm 0.00 in0.0 mm 0.00 in0.0 mm
01:15 AM 74.0°F23.3°C -32.7°F-35.9°C 1% 2.0 mph S3.2 kmh S 10.0 mph16.1 kmh 210.50 in7128.4 mb 0.00 in0.0 mm 0.00 in0.0 mm 0.00 in0.0 mm
01:20 AM 74.0°F23.3°C -32.7°F-35.9°C 1% 1.0 mph S1.6 kmh S 10.0 mph16.1 kmh 210.50 in7128.4 mb 0.00 in0.0 mm 0.00 in0.0 mm 0.00 in0.0 mm
01:25 AM 74.0°F23.3°C -32.7°F-35.9°C 1% 4.0 mph ENE6.4 kmh ENE 10.0 mph16.1 kmh 210.50 in7128.4 mb 0.00 in0.0 mm 0.00 in0.0 mm 0.00 in0.0 mm
01:30 AM 74.0°F23.3°C -32.7°F-35.9°C 1% 2.0 mph E3.2 kmh E 10.0 mph16.1 kmh 210.50 in7128.4 mb 0.00 in0.0 mm 0.00 in0.0 mm 0.00 in0.0 mm
01:35 AM 74.0°F23.3°C -32.7°F-35.9°C 1% 1.0 mph E1.6 kmh E 10.0 mph16.1 kmh 210.50 in7128.4 mb 0.00 in0.0 mm 0.00 in0.0 mm 0.00 in0.0 mm
01:40 AM 74.0°F23.3°C -32.7°F-35.9°C 1% Calm Calm 10.0 mph16.1 kmh 210.50 in7128.4 mb 0.00 in0.0 mm 0.00 in0.0 mm 0.00 in0.0 mm
01:45 AM 73.0°F22.8°C -33.3°F-36.3°C 1% Calm Calm 10.0 mph16.1 kmh 210.50 in7128.4 mb 0.00 in0.0 mm 0.00 in0.0 mm 0.00 in0.0 mm
01:50 AM 73.0°F22.8°C -33.3°F-36.3°C 1% 1.0 mph SE1.6 kmh SE 10.0 mph16.1 kmh 210.50 in7128.4 mb 0.00 in0.0 mm 0.00 in0.0 mm 0.00 in0.0 mm
01:55 AM 73.0°F22.8°C -33.3°F-36.3°C 1% 1.0 mph SE1.6 kmh SE 10.0 mph16.1 kmh 210.50 in7128.4 mb 0.00 in0.0 mm 0.00 in0.0 mm 0.00 in0.0 mm
02:00 AM 73.0°F22.8°C -33.3°F-36.3°C 1% Calm Calm 10.0 mph16.1 kmh 210.51 in7128.7 mb 0.00 in0.0 mm 0.00 in0.0 mm 0.00 in0.0 mm
02:05 AM 73.0°F22.8°C -33.3°F-36.3°C 1% 1.0 mph SSE1.6 kmh SSE 10.0 mph16.1 kmh 210.51 in7128.7 mb 0.00 in0.0 mm 0.00 in0.0 mm 0.00 in0.0 mm
02:10 AM 73.0°F22.8°C -33.3°F-36.3°C 1% 1.0 mph SSE1.6 kmh SSE 10.0 mph16.1 kmh 210.50 in7128.4 mb 0.00 in0.0 mm 0.00 in0.0 mm 0.00 in0.0 mm
02:15 AM 73.0°F22.8°C -33.3°F-36.3°C 1% 3.0 mph E4.8 kmh E 10.0 mph16.1 kmh 210.50 in7128.4 mb 0.00 in0.0 mm 0.00 in0.0 mm 0.00 in0.0 mm
02:20 AM 73.0°F22.8°C -33.3°F-36.3°C 1% Calm Calm 10.0 mph16.1 kmh 210.50 in7128.4 mb 0.00 in0.0 mm 0.00 in0.0 mm 0.00 in0.0 mm
02:25 AM 73.0°F22.8°C -33.3°F-36.3°C 1% Calm Calm 11.0 mph17.7 kmh 210.50 in7128.4 mb 0.00 in0.0 mm 0.00 in0.0 mm 0.00 in0.0 mm
02:30 AM 73.0°F22.8°C -33.3°F-36.3°C 1% 1.0 mph SW1.6 kmh SW 11.0 mph17.7 kmh 210.50 in7128.4 mb 0.00 in0.0 mm 0.00 in0.0 mm 0.00 in0.0 mm
02:35 AM 73.0°F22.8°C -33.3°F-36.3°C 1% 1.0 mph SSE1.6 kmh SSE 11.0 mph17.7 kmh 210.50 in7128.4 mb 0.00 in0.0 mm 0.00 in0.0 mm 0.00 in0.0 mm
02:40 AM 73.0°F22.8°C -33.3°F-36.3°C 1% 1.0 mph WNW1.6 kmh WNW 11.0 mph17.7 kmh 210.50 in7128.4 mb 0.00 in0.0 mm 0.00 in0.0 mm 0.00 in0.0 mm
02:45 AM 72.0°F22.2°C -33.9°F-36.6°C 1% 1.0 mph SW1.6 kmh SW 11.0 mph17.7 kmh 210.50 in7128.4 mb 0.00 in0.0 mm 0.00 in0.0 mm 0.00 in0.0 mm
02:50 AM 72.0°F22.2°C -33.9°F-36.6°C 1% Calm Calm 11.0 mph17.7 kmh 210.50 in7128.4 mb 0.00 in0.0 mm 0.00 in0.0 mm 0.00 in0.0 mm
02:55 AM 72.0°F22.2°C -33.9°F-36.6°C 1% 2.0 mph E3.2 kmh E 11.0 mph17.7 kmh 210.50 in7128.4 mb 0.00 in0.0 mm 0.00 in0.0 mm 0.00 in0.0 mm
03:00 AM 72.0°F22.2°C -33.9°F-36.6°C 1% Calm Calm 11.0 mph17.7 kmh 210.50 in7128.4 mb 0.00 in0.0 mm 0.00 in0.0 mm 0.00 in0.0 mm
03:05 AM 72.0°F22.2°C -33.9°F-36.6°C 1% 4.0 mph E6.4 kmh E 11.0 mph17.7 kmh 210.50 in7128.4 mb 0.00 in0.0 mm 0.00 in0.0 mm 0.00 in0.0 mm
03:10 AM 72.0°F22.2°C -33.9°F-36.6°C 1% Calm Calm 11.0 mph17.7 kmh 210.50 in7128.4 mb 0.00 in0.0 mm 0.00 in0.0 mm 0.00 in0.0 mm
03:15 AM 72.0°F22.2°C -33.9°F-36.6°C 1% Calm Calm 11.0 mph17.7 kmh 210.50 in7128.4 mb 0.00 in0.0 mm 0.00 in0.0 mm 0.00 in0.0 mm
03:20 AM 72.0°F22.2°C -33.9°F-36.6°C 1% 1.0 mph SE1.6 kmh SE 11.0 mph17.7 kmh 210.51 in7128.7 mb 0.00 in0.0 mm 0.00 in0.0 mm 0.00 in0.0 mm
03:25 AM 72.0°F22.2°C -33.9°F-36.6°C 1% Calm Calm 11.0 mph17.7 kmh 210.51 in7128.7 mb 0.00 in0.0 mm 0.00 in0.0 mm 0.00 in0.0 mm
03:30 AM 71.0°F21.7°C -34.5°F-36.9°C 1% Calm Calm 11.0 mph17.7 kmh 210.51 in7128.7 mb 0.00 in0.0 mm 0.00 in0.0 mm 0.00 in0.0 mm
03:35 AM 71.0°F21.7°C -34.5°F-36.9°C 1% Calm Calm 11.0 mph17.7 kmh 210.51 in7128.7 mb 0.00 in0.0 mm 0.00 in0.0 mm 0.00 in0.0 mm
03:40 AM 71.0°F21.7°C -34.5°F-36.9°C 1% Calm Calm 11.0 mph17.7 kmh 210.51 in7128.7 mb 0.00 in0.0 mm 0.00 in0.0 mm 0.00 in0.0 mm
03:45 AM 71.0°F21.7°C -34.5°F-36.9°C 1% Calm Calm 11.0 mph17.7 kmh 210.51 in7128.7 mb 0.00 in0.0 mm 0.00 in0.0 mm 0.00 in0.0 mm
03:50 AM 71.0°F21.7°C -34.5°F-36.9°C 1% Calm Calm 11.0 mph17.7 kmh 210.51 in7128.7 mb 0.00 in0.0 mm 0.00 in0.0 mm 0.00 in0.0 mm
03:55 AM 71.0°F21.7°C -34.5°F-36.9°C 1% Calm Calm 11.0 mph17.7 kmh 210.51 in7128.7 mb 0.00 in0.0 mm 0.00 in0.0 mm 0.00 in0.0 mm
04:00 AM 70.0°F21.1°C -35.1°F-37.3°C 1% Calm Calm 11.0 mph17.7 kmh 210.52 in7129.0 mb 0.00 in0.0 mm 0.00 in0.0 mm 0.00 in0.0 mm
04:05 AM 70.0°F21.1°C -35.1°F-37.3°C 1% 2.0 mph ENE3.2 kmh ENE 11.0 mph17.7 kmh 210.52 in7129.0 mb 0.00 in0.0 mm 0.00 in0.0 mm 0.00 in0.0 mm
04:10 AM 70.0°F21.1°C -35.1°F-37.3°C 1% Calm Calm 11.0 mph17.7 kmh 210.51 in7128.7 mb 0.00 in0.0 mm 0.00 in0.0 mm 0.00 in0.0 mm
04:15 AM 70.0°F21.1°C -35.1°F-37.3°C 1% Calm Calm 11.0 mph17.7 kmh 210.51 in7128.7 mb 0.00 in0.0 mm 0.00 in0.0 mm 0.00 in0.0 mm
04:20 AM 70.0°F21.1°C -35.1°F-37.3°C 1% 1.0 mph SE1.6 kmh SE 11.0 mph17.7 kmh 210.52 in7129.0 mb 0.00 in0.0 mm 0.00 in0.0 mm 0.00 in0.0 mm
04:25 AM 70.0°F21.1°C -35.1°F-37.3°C 1% 2.0 mph ENE3.2 kmh ENE 11.0 mph17.7 kmh 210.52 in7129.0 mb 0.00 in0.0 mm 0.00 in0.0 mm 0.00 in0.0 mm
04:30 AM 70.0°F21.1°C -35.1°F-37.3°C 1% Calm Calm 11.0 mph17.7 kmh 210.51 in7128.7 mb 0.00 in0.0 mm 0.00 in0.0 mm 0.00 in0.0 mm
04:35 AM 70.0°F21.1°C -35.1°F-37.3°C 1% 1.0 mph ESE1.6 kmh ESE 11.0 mph17.7 kmh 210.51 in7128.7 mb 0.00 in0.0 mm 0.00 in0.0 mm 0.00 in0.0 mm
04:40 AM 70.0°F21.1°C -35.1°F-37.3°C 1% Calm Calm 11.0 mph17.7 kmh 210.51 in7128.7 mb 0.00 in0.0 mm 0.00 in0.0 mm 0.00 in0.0 mm
04:45 AM 70.0°F21.1°C -35.1°F-37.3°C 1% Calm Calm 11.0 mph17.7 kmh 210.51 in7128.7 mb 0.00 in0.0 mm 0.00 in0.0 mm 0.00 in0.0 mm
04:50 AM 70.0°F21.1°C -35.1°F-37.3°C 1% Calm Calm 11.0 mph17.7 kmh 210.51 in7128.7 mb 0.00 in0.0 mm 0.00 in0.0 mm 0.00 in0.0 mm
04:55 AM 70.0°F21.1°C -35.1°F-37.3°C 1% Calm Calm 11.0 mph17.7 kmh 210.51 in7128.7 mb 0.00 in0.0 mm 0.00 in0.0 mm 0.00 in0.0 mm
05:00 AM 70.0°F21.1°C -35.1°F-37.3°C 1% 4.0 mph E6.4 kmh E 11.0 mph17.7 kmh 210.51 in7128.7 mb 0.00 in0.0 mm 0.00 in0.0 mm 0.00 in0.0 mm
05:05 AM 70.0°F21.1°C -35.1°F-37.3°C 1% Calm Calm 11.0 mph17.7 kmh 210.51 in7128.7 mb 0.00 in0.0 mm 0.00 in0.0 mm 0.00 in0.0 mm
05:10 AM 70.0°F21.1°C -35.1°F-37.3°C 1% 6.0 mph E9.7 kmh E 11.0 mph17.7 kmh 210.51 in7128.7 mb 0.00 in0.0 mm 0.00 in0.0 mm 0.00 in0.0 mm
05:15 AM 70.0°F21.1°C -35.1°F-37.3°C 1% 1.0 mph SE1.6 kmh SE 11.0 mph17.7 kmh 210.51 in7128.7 mb 0.00 in0.0 mm 0.00 in0.0 mm 0.00 in0.0 mm
05:20 AM 70.0°F21.1°C -35.1°F-37.3°C 1% 1.0 mph SE1.6 kmh SE 11.0 mph17.7 kmh 210.51 in7128.7 mb 0.00 in0.0 mm 0.00 in0.0 mm 0.00 in0.0 mm
05:25 AM 70.0°F21.1°C -35.1°F-37.3°C 1% Calm Calm 11.0 mph17.7 kmh 210.51 in7128.7 mb 0.00 in0.0 mm 0.00 in0.0 mm 0.00 in0.0 mm
05:30 AM 70.0°F21.1°C -35.1°F-37.3°C 1% Calm Calm 11.0 mph17.7 kmh 210.51 in7128.7 mb 0.00 in0.0 mm 0.00 in0.0 mm 0.00 in0.0 mm
05:35 AM 70.0°F21.1°C -35.1°F-37.3°C 1% Calm Calm 11.0 mph17.7 kmh 210.51 in7128.7 mb 0.00 in0.0 mm 0.00 in0.0 mm 0.00 in0.0 mm
05:40 AM 70.0°F21.1°C -35.1°F-37.3°C 1% Calm Calm 11.0 mph17.7 kmh 210.51 in7128.7 mb 0.00 in0.0 mm 0.00 in0.0 mm 0.00 in0.0 mm
05:45 AM 70.0°F21.1°C -35.1°F-37.3°C 1% Calm Calm 11.0 mph17.7 kmh 210.51 in7128.7 mb 0.00 in0.0 mm 0.00 in0.0 mm 0.00 in0.0 mm
05:50 AM 70.0°F21.1°C -35.1°F-37.3°C 1% Calm Calm 11.0 mph17.7 kmh 210.51 in7128.7 mb 0.00 in0.0 mm 0.00 in0.0 mm 0.00 in0.0 mm
05:55 AM 70.0°F21.1°C -35.1°F-37.3°C 1% 2.0 mph ESE3.2 kmh ESE 11.0 mph17.7 kmh 210.51 in7128.7 mb 0.00 in0.0 mm 0.00 in0.0 mm 0.00 in0.0 mm
06:00 AM 70.0°F21.1°C -35.1°F-37.3°C 1% Calm Calm 11.0 mph17.7 kmh 210.51 in7128.7 mb 0.00 in0.0 mm 0.00 in0.0 mm 0.00 in0.0 mm
06:05 AM 70.0°F21.1°C -35.1°F-37.3°C 1% 1.0 mph E1.6 kmh E 11.0 mph17.7 kmh 210.51 in7128.7 mb 0.00 in0.0 mm 0.00 in0.0 mm 0.00 in0.0 mm
06:10 AM 69.0°F20.6°C -35.7°F-37.6°C 1% 1.0 mph E1.6 kmh E 11.0 mph17.7 kmh 210.51 in7128.7 mb 0.00 in0.0 mm 0.00 in0.0 mm 0.00 in0.0 mm
06:15 AM 69.0°F20.6°C -35.7°F-37.6°C 1% 1.0 mph E1.6 kmh E 11.0 mph17.7 kmh 210.51 in7128.7 mb 0.00 in0.0 mm 0.00 in0.0 mm 0.00 in0.0 mm
06:20 AM 69.0°F20.6°C -35.7°F-37.6°C 1% Calm Calm 11.0 mph17.7 kmh 210.52 in7129.0 mb 0.00 in0.0 mm 0.00 in0.0 mm 0.00 in0.0 mm
06:25 AM 69.0°F20.6°C -35.7°F-37.6°C 1% 1.0 mph SE1.6 kmh SE 11.0 mph17.7 kmh 210.52 in7129.0 mb 0.00 in0.0 mm 0.00 in0.0 mm 0.00 in0.0 mm
06:30 AM 69.0°F20.6°C -35.7°F-37.6°C 1% Calm Calm 11.0 mph17.7 kmh 210.52 in7129.0 mb 0.00 in0.0 mm 0.00 in0.0 mm 0.00 in0.0 mm
06:35 AM 69.0°F20.6°C -35.7°F-37.6°C 1% 2.0 mph ESE3.2 kmh ESE 11.0 mph17.7 kmh 210.52 in7129.0 mb 0.00 in0.0 mm 0.00 in0.0 mm 0.00 in0.0 mm
06:40 AM 69.0°F20.6°C -35.7°F-37.6°C 1% 2.0 mph SE3.2 kmh SE 11.0 mph17.7 kmh 210.52 in7129.0 mb 0.00 in0.0 mm 0.00 in0.0 mm 0.00 in0.0 mm
06:45 AM 69.0°F20.6°C -35.7°F-37.6°C 1% 1.0 mph E1.6 kmh E 11.0 mph17.7 kmh 210.52 in7129.0 mb 0.00 in0.0 mm 0.00 in0.0 mm 0.00 in0.0 mm
06:50 AM 70.0°F21.1°C -35.1°F-37.3°C 1% Calm Calm 11.0 mph17.7 kmh 210.51 in7128.7 mb 0.00 in0.0 mm 0.00 in0.0 mm 0.00 in0.0 mm
06:55 AM 70.0°F21.1°C -35.1°F-37.3°C 1% 1.0 mph ENE1.6 kmh ENE 11.0 mph17.7 kmh 210.51 in7128.7 mb 0.00 in0.0 mm 0.00 in0.0 mm 0.00 in0.0 mm
07:00 AM 70.0°F21.1°C -35.1°F-37.3°C 1% Calm Calm 11.0 mph17.7 kmh 210.52 in7129.0 mb 0.00 in0.0 mm 0.00 in0.0 mm 0.00 in0.0 mm
07:05 AM 70.0°F21.1°C -35.1°F-37.3°C 1% Calm Calm 11.0 mph17.7 kmh 210.52 in7129.0 mb 0.00 in0.0 mm 0.00 in0.0 mm 0.00 in0.0 mm
07:10 AM 70.0°F21.1°C -35.1°F-37.3°C 1% 1.0 mph S1.6 kmh S 11.0 mph17.7 kmh 210.52 in7129.0 mb 0.00 in0.0 mm 0.00 in0.0 mm 0.00 in0.0 mm
07:15 AM 70.0°F21.1°C -35.1°F-37.3°C 1% Calm Calm 11.0 mph17.7 kmh 210.52 in7129.0 mb 0.00 in0.0 mm 0.00 in0.0 mm 0.00 in0.0 mm
07:20 AM 70.0°F21.1°C -35.1°F-37.3°C 1% Calm Calm 11.0 mph17.7 kmh 210.52 in7129.0 mb 0.00 in0.0 mm 0.00 in0.0 mm 0.00 in0.0 mm
07:25 AM 70.0°F21.1°C -35.1°F-37.3°C 1% Calm Calm 11.0 mph17.7 kmh 210.52 in7129.0 mb 0.00 in0.0 mm 0.00 in0.0 mm 0.00 in0.0 mm
07:30 AM 71.0°F21.7°C -34.5°F-36.9°C 1% Calm Calm 11.0 mph17.7 kmh 210.52 in7129.0 mb 0.00 in0.0 mm 0.00 in0.0 mm 0.00 in0.0 mm
07:35 AM 71.0°F21.7°C -34.5°F-36.9°C 1% Calm Calm 11.0 mph17.7 kmh 210.52 in7129.0 mb 0.00 in0.0 mm 0.00 in0.0 mm 0.00 in0.0 mm
07:40 AM 71.0°F21.7°C -34.5°F-36.9°C 1% 1.0 mph WSW1.6 kmh WSW 11.0 mph17.7 kmh 210.52 in7129.0 mb 0.00 in0.0 mm 0.00 in0.0 mm 0.00 in0.0 mm
07:45 AM 71.0°F21.7°C -34.5°F-36.9°C 1% Calm Calm 11.0 mph17.7 kmh 210.52 in7129.0 mb 0.00 in0.0 mm 0.00 in0.0 mm 0.00 in0.0 mm
07:50 AM 72.0°F22.2°C -33.9°F-36.6°C 1% Calm Calm 11.0 mph17.7 kmh 210.52 in7129.0 mb 0.00 in0.0 mm 0.00 in0.0 mm 0.00 in0.0 mm
07:55 AM 72.0°F22.2°C -33.9°F-36.6°C 1% Calm Calm 11.0 mph17.7 kmh 210.52 in7129.0 mb 0.00 in0.0 mm 0.00 in0.0 mm 0.00 in0.0 mm
08:00 AM 73.0°F22.8°C -33.3°F-36.3°C 1% Calm Calm 11.0 mph17.7 kmh 210.52 in7129.0 mb 0.00 in0.0 mm 0.00 in0.0 mm 0.00 in0.0 mm
08:05 AM 73.0°F22.8°C -33.3°F-36.3°C 1% 5.0 mph SE8.0 kmh SE 11.0 mph17.7 kmh 210.52 in7129.0 mb 0.00 in0.0 mm 0.00 in0.0 mm 0.00 in0.0 mm
08:10 AM 73.0°F22.8°C -33.3°F-36.3°C 1% 5.0 mph ESE8.0 kmh ESE 11.0 mph17.7 kmh 210.52 in7129.0 mb 0.00 in0.0 mm 0.00 in0.0 mm 0.00 in0.0 mm
08:15 AM 74.0°F23.3°C -32.7°F-35.9°C 1% 1.0 mph S1.6 kmh S 11.0 mph17.7 kmh 210.52 in7129.0 mb 0.00 in0.0 mm 0.00 in0.0 mm 0.00 in0.0 mm
08:20 AM 74.0°F23.3°C -32.7°F-35.9°C 1% Calm Calm 11.0 mph17.7 kmh 210.51 in7128.7 mb 0.00 in0.0 mm 0.00 in0.0 mm 0.00 in0.0 mm
08:25 AM 74.0°F23.3°C -32.7°F-35.9°C 1% Calm Calm 11.0 mph17.7 kmh 210.51 in7128.7 mb 0.00 in0.0 mm 0.00 in0.0 mm 0.00 in0.0 mm
08:30 AM 75.0°F23.9°C -32.1°F-35.6°C 1% Calm Calm 11.0 mph17.7 kmh 210.53 in7129.4 mb 0.00 in0.0 mm 0.00 in0.0 mm 0.00 in0.0 mm
08:35 AM 75.0°F23.9°C -32.1°F-35.6°C 1% 1.0 mph SSE1.6 kmh SSE 11.0 mph17.7 kmh 210.53 in7129.4 mb 0.00 in0.0 mm 0.00 in0.0 mm 0.00 in0.0 mm
08:40 AM 75.0°F23.9°C -32.1°F-35.6°C 1% 1.0 mph S1.6 kmh S 11.0 mph17.7 kmh 210.52 in7129.0 mb 0.00 in0.0 mm 0.00 in0.0 mm 0.00 in0.0 mm
08:45 AM 76.0°F24.4°C -31.5°F-35.3°C 1% 2.0 mph SSE3.2 kmh SSE 11.0 mph17.7 kmh 210.52 in7129.0 mb 0.00 in0.0 mm 0.00 in0.0 mm 0.00 in0.0 mm
08:50 AM 76.0°F24.4°C -31.5°F-35.3°C 1% 1.0 mph ESE1.6 kmh ESE 11.0 mph17.7 kmh 210.51 in7128.7 mb 0.00 in0.0 mm 0.00 in0.0 mm 0.00 in0.0 mm
08:55 AM 77.0°F25.0°C -30.9°F-34.9°C 1% 3.0 mph S4.8 kmh S 11.0 mph17.7 kmh 210.51 in7128.7 mb 0.00 in0.0 mm 0.00 in0.0 mm 0.00 in0.0 mm
09:00 AM 78.0°F25.6°C -30.3°F-34.6°C 1% Calm Calm 11.0 mph17.7 kmh 210.51 in7128.7 mb 0.00 in0.0 mm 0.00 in0.0 mm 0.00 in0.0 mm
09:05 AM 78.0°F25.6°C -30.3°F-34.6°C 1% 4.0 mph SSE6.4 kmh SSE 11.0 mph17.7 kmh 210.51 in7128.7 mb 0.00 in0.0 mm 0.00 in0.0 mm 0.00 in0.0 mm
09:10 AM 77.0°F25.0°C -30.9°F-34.9°C 1% 1.0 mph ESE1.6 kmh ESE 11.0 mph17.7 kmh 210.52 in7129.0 mb 0.00 in0.0 mm 0.00 in0.0 mm 0.00 in0.0 mm
09:15 AM 77.0°F25.0°C -30.9°F-34.9°C 1% 6.0 mph SSE9.7 kmh SSE 11.0 mph17.7 kmh 210.52 in7129.0 mb 0.00 in0.0 mm 0.00 in0.0 mm 0.00 in0.0 mm
09:20 AM 78.0°F25.6°C -30.3°F-34.6°C 1% 3.0 mph SSE4.8 kmh SSE 11.0 mph17.7 kmh 210.51 in7128.7 mb 0.00 in0.0 mm 0.00 in0.0 mm 0.00 in0.0 mm
09:25 AM 78.0°F25.6°C -30.3°F-34.6°C 1% 2.0 mph S3.2 kmh S 11.0 mph17.7 kmh 210.51 in7128.7 mb 0.00 in0.0 mm 0.00 in0.0 mm 0.00 in0.0 mm
09:30 AM 79.0°F26.1°C -29.7°F-34.3°C 1% 1.0 mph SE1.6 kmh SE 11.0 mph17.7 kmh 210.51 in7128.7 mb 0.00 in0.0 mm 0.00 in0.0 mm 0.00 in0.0 mm
09:35 AM 79.0°F26.1°C -29.7°F-34.3°C 1% 3.0 mph SW4.8 kmh SW 11.0 mph17.7 kmh 210.51 in7128.7 mb 0.00 in0.0 mm 0.00 in0.0 mm 0.00 in0.0 mm
09:40 AM 79.0°F26.1°C -29.7°F-34.3°C 1% 6.0 mph S9.7 kmh S 11.0 mph17.7 kmh 210.50 in7128.4 mb 0.00 in0.0 mm 0.00 in0.0 mm 0.00 in0.0 mm
09:45 AM 80.0°F26.7°C -29.1°F-33.9°C 1% 2.0 mph SSE3.2 kmh SSE 11.0 mph17.7 kmh 210.50 in7128.4 mb 0.00 in0.0 mm 0.00 in0.0 mm 0.00 in0.0 mm
09:50 AM 80.0°F26.7°C -29.1°F-33.9°C 1% 3.0 mph SSW4.8 kmh SSW 11.0 mph17.7 kmh 210.51 in7128.7 mb 0.00 in0.0 mm 0.00 in0.0 mm 0.00 in0.0 mm
09:55 AM 81.0°F27.2°C -28.5°F-33.6°C 1% 1.0 mph NW1.6 kmh NW 11.0 mph17.7 kmh 210.51 in7128.7 mb 0.00 in0.0 mm 0.00 in0.0 mm 0.00 in0.0 mm
10:00 AM 82.0°F27.8°C -27.9°F-33.3°C 1% 1.0 mph SSW1.6 kmh SSW 11.0 mph17.7 kmh 210.49 in7128.0 mb 0.00 in0.0 mm 0.00 in0.0 mm 0.00 in0.0 mm
10:05 AM 81.0°F27.2°C -28.5°F-33.6°C 1% 2.0 mph SE3.2 kmh SE 11.0 mph17.7 kmh 210.49 in7128.0 mb 0.00 in0.0 mm 0.00 in0.0 mm 0.00 in0.0 mm
10:10 AM 81.0°F27.2°C -28.5°F-33.6°C 1% 3.0 mph SE4.8 kmh SE 11.0 mph17.7 kmh 210.50 in7128.4 mb 0.00 in0.0 mm 0.00 in0.0 mm 0.00 in0.0 mm
10:15 AM 82.0°F27.8°C -27.9°F-33.3°C 1% 4.0 mph SE6.4 kmh SE 11.0 mph17.7 kmh 210.50 in7128.4 mb 0.00 in0.0 mm 0.00 in0.0 mm 0.00 in0.0 mm
10:20 AM 82.0°F27.8°C -27.9°F-33.3°C 1% 2.0 mph S3.2 kmh S 11.0 mph17.7 kmh 210.49 in7128.0 mb 0.00 in0.0 mm 0.00 in0.0 mm 0.00 in0.0 mm
10:25 AM 83.0°F28.3°C -27.3°F-32.9°C 1% Calm Calm 11.0 mph17.7 kmh 210.49 in7128.0 mb 0.00 in0.0 mm 0.00 in0.0 mm 0.00 in0.0 mm
10:30 AM 84.0°F28.9°C -26.7°F-32.6°C 1% 1.0 mph SSE1.6 kmh SSE 11.0 mph17.7 kmh 210.48 in7127.7 mb 0.00 in0.0 mm 0.00 in0.0 mm 0.00 in0.0 mm
10:35 AM 84.0°F28.9°C -26.7°F-32.6°C 1% 3.0 mph S4.8 kmh S 11.0 mph17.7 kmh 210.48 in7127.7 mb 0.00 in0.0 mm 0.00 in0.0 mm 0.00 in0.0 mm
10:40 AM 84.0°F28.9°C -26.7°F-32.6°C 1% 2.0 mph WSW3.2 kmh WSW 11.0 mph17.7 kmh 210.48 in7127.7 mb 0.00 in0.0 mm 0.00 in0.0 mm 0.00 in0.0 mm
10:45 AM 84.0°F28.9°C -26.7°F-32.6°C 1% 3.0 mph ESE4.8 kmh ESE 11.0 mph17.7 kmh 210.48 in7127.7 mb 0.00 in0.0 mm 0.00 in0.0 mm 0.00 in0.0 mm
10:50 AM 85.0°F29.4°C -26.1°F-32.3°C 1% 2.0 mph SW3.2 kmh SW 11.0 mph17.7 kmh 210.48 in7127.7 mb 0.00 in0.0 mm 0.00 in0.0 mm 0.00 in0.0 mm
10:55 AM 86.0°F30.0°C -25.5°F-31.9°C 1% Calm Calm 11.0 mph17.7 kmh 210.48 in7127.7 mb 0.00 in0.0 mm 0.00 in0.0 mm 0.00 in0.0 mm
11:00 AM 86.0°F30.0°C -25.5°F-31.9°C 1% 6.0 mph SSE9.7 kmh SSE 11.0 mph17.7 kmh 210.48 in7127.7 mb 0.00 in0.0 mm 0.00 in0.0 mm 0.00 in0.0 mm
11:05 AM 85.0°F29.4°C -26.1°F-32.3°C 1% Calm Calm 11.0 mph17.7 kmh 210.48 in7127.7 mb 0.00 in0.0 mm 0.00 in0.0 mm 0.00 in0.0 mm
11:10 AM 86.0°F30.0°C -25.5°F-31.9°C 1% 3.0 mph SSE4.8 kmh SSE 11.0 mph17.7 kmh 210.48 in7127.7 mb 0.00 in0.0 mm 0.00 in0.0 mm 0.00 in0.0 mm
11:15 AM 85.0°F29.4°C -26.1°F-32.3°C 1% 2.0 mph ESE3.2 kmh ESE 11.0 mph17.7 kmh 210.48 in7127.7 mb 0.00 in0.0 mm 0.00 in0.0 mm 0.00 in0.0 mm
11:20 AM 84.0°F28.9°C -26.7°F-32.6°C 1% 5.0 mph SW8.0 kmh SW 11.0 mph17.7 kmh 210.49 in7128.0 mb 0.00 in0.0 mm 0.00 in0.0 mm 0.00 in0.0 mm
11:25 AM 84.0°F28.9°C -26.7°F-32.6°C 1% 4.0 mph S6.4 kmh S 11.0 mph17.7 kmh 210.49 in7128.0 mb 0.00 in0.0 mm 0.00 in0.0 mm 0.00 in0.0 mm
11:30 AM 85.0°F29.4°C -26.1°F-32.3°C 1% 2.0 mph SSW3.2 kmh SSW 11.0 mph17.7 kmh 210.48 in7127.7 mb 0.00 in0.0 mm 0.00 in0.0 mm 0.00 in0.0 mm
11:35 AM 85.0°F29.4°C -26.1°F-32.3°C 1% 3.0 mph SE4.8 kmh SE 11.0 mph17.7 kmh 210.48 in7127.7 mb 0.00 in0.0 mm 0.00 in0.0 mm 0.00 in0.0 mm
11:40 AM 85.0°F29.4°C -26.1°F-32.3°C 1% 3.0 mph WSW4.8 kmh WSW 15.0 mph24.1 kmh 210.48 in7127.7 mb 0.00 in0.0 mm 0.00 in0.0 mm 0.00 in0.0 mm
11:45 AM 86.0°F30.0°C -25.5°F-31.9°C 1% 6.0 mph SE9.7 kmh SE 15.0 mph24.1 kmh 210.48 in7127.7 mb 0.00 in0.0 mm 0.00 in0.0 mm 0.00 in0.0 mm
11:50 AM 86.0°F30.0°C -25.5°F-31.9°C 1% 4.0 mph WSW6.4 kmh WSW 15.0 mph24.1 kmh 210.47 in7127.3 mb 0.00 in0.0 mm 0.00 in0.0 mm 0.00 in0.0 mm
11:55 AM 86.0°F30.0°C -25.5°F-31.9°C 1% 7.0 mph S11.3 kmh S 15.0 mph24.1 kmh 210.47 in7127.3 mb 0.00 in0.0 mm 0.00 in0.0 mm 0.00 in0.0 mm
12:00 PM 86.0°F30.0°C -25.5°F-31.9°C 1% 3.0 mph NW4.8 kmh NW 15.0 mph24.1 kmh 210.47 in7127.3 mb 0.00 in0.0 mm 0.00 in0.0 mm 0.00 in0.0 mm
12:05 PM 86.0°F30.0°C -25.5°F-31.9°C 1% 6.0 mph S9.7 kmh S 15.0 mph24.1 kmh 210.47 in7127.3 mb 0.00 in0.0 mm 0.00 in0.0 mm 0.00 in0.0 mm
12:10 PM 86.0°F30.0°C -25.5°F-31.9°C 1% 11.0 mph S17.7 kmh S 15.0 mph24.1 kmh 210.47 in7127.3 mb 0.00 in0.0 mm 0.00 in0.0 mm 0.00 in0.0 mm
12:15 PM 86.0°F30.0°C -25.5°F-31.9°C 1% 6.0 mph SSW9.7 kmh SSW 15.0 mph24.1 kmh 210.47 in7127.3 mb 0.00 in0.0 mm 0.00 in0.0 mm 0.00 in0.0 mm
12:20 PM 86.0°F30.0°C -25.5°F-31.9°C 1% 1.0 mph SE1.6 kmh SE 15.0 mph24.1 kmh 210.47 in7127.3 mb 0.00 in0.0 mm 0.00 in0.0 mm 0.00 in0.0 mm
12:25 PM 87.0°F30.6°C -24.9°F-31.6°C 1% Calm Calm 15.0 mph24.1 kmh 210.47 in7127.3 mb 0.00 in0.0 mm 0.00 in0.0 mm 0.00 in0.0 mm
12:30 PM 88.0°F31.1°C -24.3°F-31.3°C 1% 5.0 mph E8.0 kmh E 15.0 mph24.1 kmh 210.46 in7127.0 mb 0.00 in0.0 mm 0.00 in0.0 mm 0.00 in0.0 mm
12:35 PM 88.0°F31.1°C -24.3°F-31.3°C 1% 4.0 mph S6.4 kmh S 15.0 mph24.1 kmh 210.46 in7127.0 mb 0.00 in0.0 mm 0.00 in0.0 mm 0.00 in0.0 mm
12:40 PM 88.0°F31.1°C -24.3°F-31.3°C 1% 6.0 mph SW9.7 kmh SW 15.0 mph24.1 kmh 210.46 in7127.0 mb 0.00 in0.0 mm 0.00 in0.0 mm 0.00 in0.0 mm
12:45 PM 87.0°F30.6°C -24.9°F-31.6°C 1% 3.0 mph S4.8 kmh S 15.0 mph24.1 kmh 210.46 in7127.0 mb 0.00 in0.0 mm 0.00 in0.0 mm 0.00 in0.0 mm
12:50 PM 87.0°F30.6°C -24.9°F-31.6°C 1% 2.0 mph S3.2 kmh S 15.0 mph24.1 kmh 210.46 in7127.0 mb 0.00 in0.0 mm 0.00 in0.0 mm 0.00 in0.0 mm
12:55 PM 86.0°F30.0°C -25.5°F-31.9°C 1% 7.0 mph SSE11.3 kmh SSE 15.0 mph24.1 kmh 210.46 in7127.0 mb 0.00 in0.0 mm 0.00 in0.0 mm 0.00 in0.0 mm
01:00 PM 87.0°F30.6°C -24.9°F-31.6°C 1% 4.0 mph SE6.4 kmh SE 15.0 mph24.1 kmh 210.45 in7126.7 mb 0.00 in0.0 mm 0.00 in0.0 mm 0.00 in0.0 mm
01:05 PM 88.0°F31.1°C -24.3°F-31.3°C 1% 3.0 mph SE4.8 kmh SE 15.0 mph24.1 kmh 210.45 in7126.7 mb 0.00 in0.0 mm 0.00 in0.0 mm 0.00 in0.0 mm
01:10 PM 89.0°F31.7°C -23.7°F-30.9°C 1% 1.0 mph WSW1.6 kmh WSW 15.0 mph24.1 kmh 210.44 in7126.3 mb 0.00 in0.0 mm 0.00 in0.0 mm 0.00 in0.0 mm
01:15 PM 88.0°F31.1°C -24.3°F-31.3°C 1% 8.0 mph S12.9 kmh S 15.0 mph24.1 kmh 210.44 in7126.3 mb 0.00 in0.0 mm 0.00 in0.0 mm 0.00 in0.0 mm
01:20 PM 87.0°F30.6°C -24.9°F-31.6°C 1% 8.0 mph S12.9 kmh S 15.0 mph24.1 kmh 210.45 in7126.7 mb 0.00 in0.0 mm 0.00 in0.0 mm 0.00 in0.0 mm
01:25 PM 87.0°F30.6°C -24.9°F-31.6°C 1% 7.0 mph SSE11.3 kmh SSE 15.0 mph24.1 kmh 210.45 in7126.7 mb 0.00 in0.0 mm 0.00 in0.0 mm 0.00 in0.0 mm
01:30 PM 89.0°F31.7°C -23.7°F-30.9°C 1% 4.0 mph NE6.4 kmh NE 15.0 mph24.1 kmh 210.44 in7126.3 mb 0.00 in0.0 mm 0.00 in0.0 mm 0.00 in0.0 mm
01:35 PM 89.0°F31.7°C -23.7°F-30.9°C 1% 1.0 mph SSE1.6 kmh SSE 15.0 mph24.1 kmh 210.44 in7126.3 mb 0.00 in0.0 mm 0.00 in0.0 mm 0.00 in0.0 mm
01:40 PM 89.0°F31.7°C -23.7°F-30.9°C 1% 1.0 mph SSW1.6 kmh SSW 15.0 mph24.1 kmh 210.43 in7126.0 mb 0.00 in0.0 mm 0.00 in0.0 mm 0.00 in0.0 mm
01:45 PM 90.0°F32.2°C -23.2°F-30.7°C 1% 1.0 mph ESE1.6 kmh ESE 15.0 mph24.1 kmh 210.43 in7126.0 mb 0.00 in0.0 mm 0.00 in0.0 mm 0.00 in0.0 mm
01:50 PM 90.0°F32.2°C -23.2°F-30.7°C 1% 3.0 mph SW4.8 kmh SW 15.0 mph24.1 kmh 210.42 in7125.6 mb 0.00 in0.0 mm 0.00 in0.0 mm 0.00 in0.0 mm
01:55 PM 89.0°F31.7°C -23.7°F-30.9°C 1% 6.0 mph WNW9.7 kmh WNW 15.0 mph24.1 kmh 210.42 in7125.6 mb 0.00 in0.0 mm 0.00 in0.0 mm 0.00 in0.0 mm
02:00 PM 89.0°F31.7°C -23.7°F-30.9°C 1% 5.0 mph SE8.0 kmh SE 15.0 mph24.1 kmh 210.42 in7125.6 mb 0.00 in0.0 mm 0.00 in0.0 mm 0.00 in0.0 mm
02:05 PM 89.0°F31.7°C -23.7°F-30.9°C 1% 1.0 mph SW1.6 kmh SW 15.0 mph24.1 kmh 210.42 in7125.6 mb 0.00 in0.0 mm 0.00 in0.0 mm 0.00 in0.0 mm
02:10 PM 89.0°F31.7°C -23.7°F-30.9°C 1% 5.0 mph SE8.0 kmh SE 15.0 mph24.1 kmh 210.41 in7125.3 mb 0.00 in0.0 mm 0.00 in0.0 mm 0.00 in0.0 mm
02:15 PM 90.0°F32.2°C -23.2°F-30.7°C 1% 4.0 mph E6.4 kmh E 16.0 mph25.7 kmh 210.41 in7125.3 mb 0.00 in0.0 mm 0.00 in0.0 mm 0.00 in0.0 mm
02:20 PM 89.0°F31.7°C -23.7°F-30.9°C 1% 11.0 mph SSE17.7 kmh SSE 17.0 mph27.4 kmh 210.41 in7125.3 mb 0.00 in0.0 mm 0.00 in0.0 mm 0.00 in0.0 mm
02:25 PM 89.0°F31.7°C -23.7°F-30.9°C 1% 7.0 mph SE11.3 kmh SE 17.0 mph27.4 kmh 210.41 in7125.3 mb 0.00 in0.0 mm 0.00 in0.0 mm 0.00 in0.0 mm
02:30 PM 89.0°F31.7°C -23.7°F-30.9°C 1% 8.0 mph S12.9 kmh S 17.0 mph27.4 kmh 210.41 in7125.3 mb 0.00 in0.0 mm 0.00 in0.0 mm 0.00 in0.0 mm
02:35 PM 90.0°F32.2°C -23.2°F-30.7°C 1% 15.0 mph S24.1 kmh S 17.0 mph27.4 kmh 210.41 in7125.3 mb 0.00 in0.0 mm 0.00 in0.0 mm 0.00 in0.0 mm
02:40 PM 90.0°F32.2°C -23.2°F-30.7°C 1% 6.0 mph S9.7 kmh S 17.0 mph27.4 kmh 210.40 in7125.0 mb 0.00 in0.0 mm 0.00 in0.0 mm 0.00 in0.0 mm
02:45 PM 91.0°F32.8°C -22.6°F-30.3°C 1% 4.0 mph SSW6.4 kmh SSW 17.0 mph27.4 kmh 210.40 in7125.0 mb 0.00 in0.0 mm 0.00 in0.0 mm 0.00 in0.0 mm
02:50 PM 92.0°F33.3°C -22.0°F-30.0°C 1% 5.0 mph SSW8.0 kmh SSW 17.0 mph27.4 kmh 210.39 in7124.6 mb 0.00 in0.0 mm 0.00 in0.0 mm 0.00 in0.0 mm
02:55 PM 91.0°F32.8°C -22.6°F-30.3°C 1% 7.0 mph SSW11.3 kmh SSW 17.0 mph27.4 kmh 210.39 in7124.6 mb 0.00 in0.0 mm 0.00 in0.0 mm 0.00 in0.0 mm
03:00 PM 90.0°F32.2°C -23.2°F-30.7°C 1% 9.0 mph S14.5 kmh S 17.0 mph27.4 kmh 210.39 in7124.6 mb 0.00 in0.0 mm 0.00 in0.0 mm 0.00 in0.0 mm
03:05 PM 90.0°F32.2°C -23.2°F-30.7°C 1% 6.0 mph SE9.7 kmh SE 17.0 mph27.4 kmh 210.39 in7124.6 mb 0.00 in0.0 mm 0.00 in0.0 mm 0.00 in0.0 mm
03:10 PM 90.0°F32.2°C -23.2°F-30.7°C 1% 4.0 mph SW6.4 kmh SW 17.0 mph27.4 kmh 210.39 in7124.6 mb 0.00 in0.0 mm 0.00 in0.0 mm 0.00 in0.0 mm
03:15 PM 90.0°F32.2°C -23.2°F-30.7°C 1% 7.0 mph S11.3 kmh S 17.0 mph27.4 kmh 210.39 in7124.6 mb 0.00 in0.0 mm 0.00 in0.0 mm 0.00 in0.0 mm
03:20 PM 90.0°F32.2°C -23.2°F-30.7°C 1% 14.0 mph SSE22.5 kmh SSE 17.0 mph27.4 kmh 210.39 in7124.6 mb 0.00 in0.0 mm 0.00 in0.0 mm 0.00 in0.0 mm
03:25 PM 90.0°F32.2°C -23.2°F-30.7°C 1% 7.0 mph SSE11.3 kmh SSE 17.0 mph27.4 kmh 210.39 in7124.6 mb 0.00 in0.0 mm 0.00 in0.0 mm 0.00 in0.0 mm
03:30 PM 90.0°F32.2°C -23.2°F-30.7°C 1% 3.0 mph S4.8 kmh S 17.0 mph27.4 kmh 210.39 in7124.6 mb 0.00 in0.0 mm 0.00 in0.0 mm 0.00 in0.0 mm
03:35 PM 90.0°F32.2°C -23.2°F-30.7°C 1% 12.0 mph S19.3 kmh S 17.0 mph27.4 kmh 210.39 in7124.6 mb 0.00 in0.0 mm 0.00 in0.0 mm 0.00 in0.0 mm
03:40 PM 89.0°F31.7°C -23.7°F-30.9°C 1% 5.0 mph S8.0 kmh S 17.0 mph27.4 kmh 210.38 in7124.3 mb 0.00 in0.0 mm 0.00 in0.0 mm 0.00 in0.0 mm
03:45 PM 89.0°F31.7°C -23.7°F-30.9°C 1% 4.0 mph S6.4 kmh S 17.0 mph27.4 kmh 210.38 in7124.3 mb 0.00 in0.0 mm 0.00 in0.0 mm 0.00 in0.0 mm
03:50 PM 91.0°F32.8°C -22.6°F-30.3°C 1% 1.0 mph S1.6 kmh S 17.0 mph27.4 kmh 210.38 in7124.3 mb 0.00 in0.0 mm 0.00 in0.0 mm 0.00 in0.0 mm
03:55 PM 91.0°F32.8°C -22.6°F-30.3°C 1% 7.0 mph E11.3 kmh E 17.0 mph27.4 kmh 210.38 in7124.3 mb 0.00 in0.0 mm 0.00 in0.0 mm 0.00 in0.0 mm
04:00 PM 91.0°F32.8°C -22.6°F-30.3°C 1% 6.0 mph SE9.7 kmh SE 17.0 mph27.4 kmh 210.37 in7123.9 mb 0.00 in0.0 mm 0.00 in0.0 mm 0.00 in0.0 mm
04:05 PM 91.0°F32.8°C -22.6°F-30.3°C 1% 3.0 mph SE4.8 kmh SE 17.0 mph27.4 kmh 210.37 in7123.9 mb 0.00 in0.0 mm 0.00 in0.0 mm 0.00 in0.0 mm
04:10 PM 90.0°F32.2°C -23.2°F-30.7°C 1% 5.0 mph S8.0 kmh S 17.0 mph27.4 kmh 210.36 in7123.6 mb 0.00 in0.0 mm 0.00 in0.0 mm 0.00 in0.0 mm
04:15 PM 90.0°F32.2°C -23.2°F-30.7°C 1% 6.0 mph S9.7 kmh S 17.0 mph27.4 kmh 210.36 in7123.6 mb 0.00 in0.0 mm 0.00 in0.0 mm 0.00 in0.0 mm
04:20 PM 90.0°F32.2°C -23.2°F-30.7°C 1% 6.0 mph S9.7 kmh S 17.0 mph27.4 kmh 210.37 in7123.9 mb 0.00 in0.0 mm 0.00 in0.0 mm 0.00 in0.0 mm
04:25 PM 90.0°F32.2°C -23.2°F-30.7°C 1% 2.0 mph NE3.2 kmh NE 17.0 mph27.4 kmh 210.37 in7123.9 mb 0.00 in0.0 mm 0.00 in0.0 mm 0.00 in0.0 mm
04:30 PM 91.0°F32.8°C -22.6°F-30.3°C 1% 1.0 mph E1.6 kmh E 17.0 mph27.4 kmh 210.37 in7123.9 mb 0.00 in0.0 mm 0.00 in0.0 mm 0.00 in0.0 mm
04:35 PM 91.0°F32.8°C -22.6°F-30.3°C 1% 1.0 mph SW1.6 kmh SW 17.0 mph27.4 kmh 210.37 in7123.9 mb 0.00 in0.0 mm 0.00 in0.0 mm 0.00 in0.0 mm
04:40 PM 90.0°F32.2°C -23.2°F-30.7°C 1% 3.0 mph SW4.8 kmh SW 17.0 mph27.4 kmh 210.36 in7123.6 mb 0.00 in0.0 mm 0.00 in0.0 mm 0.00 in0.0 mm
04:45 PM 90.0°F32.2°C -23.2°F-30.7°C 1% 3.0 mph SE4.8 kmh SE 17.0 mph27.4 kmh 210.36 in7123.6 mb 0.00 in0.0 mm 0.00 in0.0 mm 0.00 in0.0 mm
04:50 PM 89.0°F31.7°C -23.7°F-30.9°C 1% 4.0 mph SE6.4 kmh SE 17.0 mph27.4 kmh 210.37 in7123.9 mb 0.00 in0.0 mm 0.00 in0.0 mm 0.00 in0.0 mm
04:55 PM 89.0°F31.7°C -23.7°F-30.9°C 1% 7.0 mph S11.3 kmh S 17.0 mph27.4 kmh 210.37 in7123.9 mb 0.00 in0.0 mm 0.00 in0.0 mm 0.00 in0.0 mm
05:00 PM 89.0°F31.7°C -23.7°F-30.9°C 1% 5.0 mph ESE8.0 kmh ESE 17.0 mph27.4 kmh 210.37 in7123.9 mb 0.00 in0.0 mm 0.00 in0.0 mm 0.00 in0.0 mm
05:05 PM 89.0°F31.7°C -23.7°F-30.9°C 1% 2.0 mph SSW3.2 kmh SSW 17.0 mph27.4 kmh 210.37 in7123.9 mb 0.00 in0.0 mm 0.00 in0.0 mm 0.00 in0.0 mm
05:10 PM 88.0°F31.1°C -24.3°F-31.3°C 1% 1.0 mph ESE1.6 kmh ESE 17.0 mph27.4 kmh 210.37 in7123.9 mb 0.00 in0.0 mm 0.00 in0.0 mm 0.00 in0.0 mm
05:15 PM 88.0°F31.1°C -24.3°F-31.3°C 1% Calm Calm 17.0 mph27.4 kmh 210.37 in7123.9 mb 0.00 in0.0 mm 0.00 in0.0 mm 0.00 in0.0 mm
05:20 PM 88.0°F31.1°C -24.3°F-31.3°C 1% 1.0 mph S1.6 kmh S 17.0 mph27.4 kmh 210.37 in7123.9 mb 0.00 in0.0 mm 0.00 in0.0 mm 0.00 in0.0 mm
05:25 PM 88.0°F31.1°C -24.3°F-31.3°C 1% 3.0 mph SSE4.8 kmh SSE 17.0 mph27.4 kmh 210.37 in7123.9 mb 0.00 in0.0 mm 0.00 in0.0 mm 0.00 in0.0 mm
05:30 PM 88.0°F31.1°C -24.3°F-31.3°C 1% 4.0 mph SE6.4 kmh SE 17.0 mph27.4 kmh 210.37 in7123.9 mb 0.00 in0.0 mm 0.00 in0.0 mm 0.00 in0.0 mm
05:35 PM 87.0°F30.6°C -24.9°F-31.6°C 1% 4.0 mph S6.4 kmh S 17.0 mph27.4 kmh 210.37 in7123.9 mb 0.00 in0.0 mm 0.00 in0.0 mm 0.00 in0.0 mm
05:40 PM 87.0°F30.6°C -24.9°F-31.6°C 1% 1.0 mph SSE1.6 kmh SSE 17.0 mph27.4 kmh 210.38 in7124.3 mb 0.00 in0.0 mm 0.00 in0.0 mm 0.00 in0.0 mm
05:45 PM 87.0°F30.6°C -24.9°F-31.6°C 1% 8.0 mph SSE12.9 kmh SSE 17.0 mph27.4 kmh 210.38 in7124.3 mb 0.00 in0.0 mm 0.00 in0.0 mm 0.00 in0.0 mm
05:50 PM 87.0°F30.6°C -24.9°F-31.6°C 1% 7.0 mph SE11.3 kmh SE 17.0 mph27.4 kmh 210.38 in7124.3 mb 0.00 in0.0 mm 0.00 in0.0 mm 0.00 in0.0 mm
05:55 PM 87.0°F30.6°C -24.9°F-31.6°C 1% 6.0 mph SSE9.7 kmh SSE 17.0 mph27.4 kmh 210.38 in7124.3 mb 0.00 in0.0 mm 0.00 in0.0 mm 0.00 in0.0 mm
06:00 PM 87.0°F30.6°C -24.9°F-31.6°C 1% 8.0 mph S12.9 kmh S 17.0 mph27.4 kmh 210.37 in7123.9 mb 0.00 in0.0 mm 0.00 in0.0 mm 0.00 in0.0 mm
06:05 PM 87.0°F30.6°C -24.9°F-31.6°C 1% Calm Calm 17.0 mph27.4 kmh 210.37 in7123.9 mb 0.00 in0.0 mm 0.00 in0.0 mm 0.00 in0.0 mm
06:10 PM 87.0°F30.6°C -24.9°F-31.6°C 1% 3.0 mph S4.8 kmh S 17.0 mph27.4 kmh 210.37 in7123.9 mb 0.00 in0.0 mm 0.00 in0.0 mm 0.00 in0.0 mm
06:15 PM 86.0°F30.0°C -25.5°F-31.9°C 1% 1.0 mph S1.6 kmh S 17.0 mph27.4 kmh 210.37 in7123.9 mb 0.00 in0.0 mm 0.00 in0.0 mm 0.00 in0.0 mm
06:20 PM 86.0°F30.0°C -25.5°F-31.9°C 1% 5.0 mph SSW8.0 kmh SSW 17.0 mph27.4 kmh 210.37 in7123.9 mb 0.00 in0.0 mm 0.00 in0.0 mm 0.00 in0.0 mm
06:25 PM 86.0°F30.0°C -25.5°F-31.9°C 1% 4.0 mph SE6.4 kmh SE 17.0 mph27.4 kmh 210.37 in7123.9 mb 0.00 in0.0 mm 0.00 in0.0 mm 0.00 in0.0 mm
06:30 PM 86.0°F30.0°C -25.5°F-31.9°C 1% 4.0 mph SE6.4 kmh SE 17.0 mph27.4 kmh 210.37 in7123.9 mb 0.00 in0.0 mm 0.00 in0.0 mm 0.00 in0.0 mm
06:35 PM 86.0°F30.0°C -25.5°F-31.9°C 1% Calm Calm 17.0 mph27.4 kmh 210.37 in7123.9 mb 0.00 in0.0 mm 0.00 in0.0 mm 0.00 in0.0 mm
06:40 PM 86.0°F30.0°C -25.5°F-31.9°C 1% Calm Calm 17.0 mph27.4 kmh 210.37 in7123.9 mb 0.00 in0.0 mm 0.00 in0.0 mm 0.00 in0.0 mm
06:45 PM 86.0°F30.0°C -25.5°F-31.9°C 1% Calm Calm 17.0 mph27.4 kmh 210.37 in7123.9 mb 0.00 in0.0 mm 0.00 in0.0 mm 0.00 in0.0 mm
06:50 PM 86.0°F30.0°C -25.5°F-31.9°C 1% 3.0 mph SSE4.8 kmh SSE 17.0 mph27.4 kmh 210.37 in7123.9 mb 0.00 in0.0 mm 0.00 in0.0 mm 0.00 in0.0 mm
06:55 PM 85.0°F29.4°C -26.1°F-32.3°C 1% 2.0 mph SSE3.2 kmh SSE 17.0 mph27.4 kmh 210.37 in7123.9 mb 0.00 in0.0 mm 0.00 in0.0 mm 0.00 in0.0 mm
07:00 PM 85.0°F29.4°C -26.1°F-32.3°C 1% 4.0 mph SSE6.4 kmh SSE 17.0 mph27.4 kmh 210.38 in7124.3 mb 0.00 in0.0 mm 0.00 in0.0 mm 0.00 in0.0 mm
07:05 PM 85.0°F29.4°C -26.1°F-32.3°C 1% 2.0 mph SSE3.2 kmh SSE 17.0 mph27.4 kmh 210.38 in7124.3 mb 0.00 in0.0 mm 0.00 in0.0 mm 0.00 in0.0 mm
07:10 PM 85.0°F29.4°C -26.1°F-32.3°C 1% 3.0 mph SE4.8 kmh SE 17.0 mph27.4 kmh 210.37 in7123.9 mb 0.00 in0.0 mm 0.00 in0.0 mm 0.00 in0.0 mm
07:15 PM 85.0°F29.4°C -26.1°F-32.3°C 1% 3.0 mph ESE4.8 kmh ESE 17.0 mph27.4 kmh 210.37 in7123.9 mb 0.00 in0.0 mm 0.00 in0.0 mm 0.00 in0.0 mm
07:20 PM 84.0°F28.9°C -26.7°F-32.6°C 1% 1.0 mph SSE1.6 kmh SSE 17.0 mph27.4 kmh 210.37 in7123.9 mb 0.00 in0.0 mm 0.00 in0.0 mm 0.00 in0.0 mm
07:25 PM 84.0°F28.9°C -26.7°F-32.6°C 1% Calm Calm 17.0 mph27.4 kmh 210.37 in7123.9 mb 0.00 in0.0 mm 0.00 in0.0 mm 0.00 in0.0 mm
07:30 PM 84.0°F28.9°C -26.7°F-32.6°C 1% Calm Calm 17.0 mph27.4 kmh 210.37 in7123.9 mb 0.00 in0.0 mm 0.00 in0.0 mm 0.00 in0.0 mm
07:35 PM 84.0°F28.9°C -26.7°F-32.6°C 1% Calm Calm 17.0 mph27.4 kmh 210.37 in7123.9 mb 0.00 in0.0 mm 0.00 in0.0 mm 0.00 in0.0 mm
07:40 PM 84.0°F28.9°C -26.7°F-32.6°C 1% Calm Calm 17.0 mph27.4 kmh 210.37 in7123.9 mb 0.00 in0.0 mm 0.00 in0.0 mm 0.00 in0.0 mm
07:45 PM 84.0°F28.9°C -26.7°F-32.6°C 1% 1.0 mph ESE1.6 kmh ESE 17.0 mph27.4 kmh 210.37 in7123.9 mb 0.00 in0.0 mm 0.00 in0.0 mm 0.00 in0.0 mm
07:50 PM 84.0°F28.9°C -26.7°F-32.6°C 1% Calm Calm 17.0 mph27.4 kmh 210.37 in7123.9 mb 0.00 in0.0 mm 0.00 in0.0 mm 0.00 in0.0 mm
07:55 PM 84.0°F28.9°C -26.7°F-32.6°C 1% Calm Calm 17.0 mph27.4 kmh 210.37 in7123.9 mb 0.00 in0.0 mm 0.00 in0.0 mm 0.00 in0.0 mm
08:00 PM 84.0°F28.9°C -26.7°F-32.6°C 1% 1.0 mph SE1.6 kmh SE 17.0 mph27.4 kmh 210.37 in7123.9 mb 0.00 in0.0 mm 0.00 in0.0 mm 0.00 in0.0 mm
08:05 PM 84.0°F28.9°C -26.7°F-32.6°C 1% Calm Calm 17.0 mph27.4 kmh 210.37 in7123.9 mb 0.00 in0.0 mm 0.00 in0.0 mm 0.00 in0.0 mm
08:10 PM 84.0°F28.9°C -26.7°F-32.6°C 1% Calm Calm 17.0 mph27.4 kmh 210.36 in7123.6 mb 0.00 in0.0 mm 0.00 in0.0 mm 0.00 in0.0 mm
08:15 PM 83.0°F28.3°C -27.3°F-32.9°C 1% Calm Calm 17.0 mph27.4 kmh 210.36 in7123.6 mb 0.00 in0.0 mm 0.00 in0.0 mm 0.00 in0.0 mm
08:20 PM 83.0°F28.3°C -27.3°F-32.9°C 1% 4.0 mph E6.4 kmh E 17.0 mph27.4 kmh 210.37 in7123.9 mb 0.00 in0.0 mm 0.00 in0.0 mm 0.00 in0.0 mm
08:25 PM 83.0°F28.3°C -27.3°F-32.9°C 1% 1.0 mph SE1.6 kmh SE 17.0 mph27.4 kmh 210.37 in7123.9 mb 0.00 in0.0 mm 0.00 in0.0 mm 0.00 in0.0 mm
08:30 PM 83.0°F28.3°C -27.3°F-32.9°C 1% 1.0 mph SE1.6 kmh SE 17.0 mph27.4 kmh 210.37 in7123.9 mb 0.00 in0.0 mm 0.00 in0.0 mm 0.00 in0.0 mm
08:35 PM 83.0°F28.3°C -27.3°F-32.9°C 1% 1.0 mph SE1.6 kmh SE 17.0 mph27.4 kmh 210.37 in7123.9 mb 0.00 in0.0 mm 0.00 in0.0 mm 0.00 in0.0 mm
08:40 PM 83.0°F28.3°C -27.3°F-32.9°C 1% Calm Calm 17.0 mph27.4 kmh 210.37 in7123.9 mb 0.00 in0.0 mm 0.00 in0.0 mm 0.00 in0.0 mm
08:45 PM 83.0°F28.3°C -27.3°F-32.9°C 1% Calm Calm 17.0 mph27.4 kmh 210.37 in7123.9 mb 0.00 in0.0 mm 0.00 in0.0 mm 0.00 in0.0 mm
08:50 PM 83.0°F28.3°C -27.3°F-32.9°C 1% 6.0 mph S9.7 kmh S 17.0 mph27.4 kmh 210.37 in7123.9 mb 0.00 in0.0 mm 0.00 in0.0 mm 0.00 in0.0 mm
08:55 PM 82.0°F27.8°C -27.9°F-33.3°C 1% 6.0 mph S9.7 kmh S 17.0 mph27.4 kmh 210.37 in7123.9 mb 0.00 in0.0 mm 0.00 in0.0 mm 0.00 in0.0 mm
09:00 PM 81.0°F27.2°C -28.5°F-33.6°C 1% 9.0 mph SSW14.5 kmh SSW 17.0 mph27.4 kmh 210.39 in7124.6 mb 0.00 in0.0 mm 0.00 in0.0 mm 0.00 in0.0 mm
09:05 PM 81.0°F27.2°C -28.5°F-33.6°C 1% 9.0 mph SSE14.5 kmh SSE 17.0 mph27.4 kmh 210.39 in7124.6 mb 0.00 in0.0 mm 0.00 in0.0 mm 0.00 in0.0 mm
09:10 PM 80.0°F26.7°C -29.1°F-33.9°C 1% 10.0 mph S16.1 kmh S 17.0 mph27.4 kmh 210.39 in7124.6 mb 0.00 in0.0 mm 0.00 in0.0 mm 0.00 in0.0 mm
09:15 PM 80.0°F26.7°C -29.1°F-33.9°C 1% 9.0 mph SSW14.5 kmh SSW 17.0 mph27.4 kmh 210.39 in7124.6 mb 0.00 in0.0 mm 0.00 in0.0 mm 0.00 in0.0 mm
09:20 PM 80.0°F26.7°C -29.1°F-33.9°C 1% 10.0 mph SSW16.1 kmh SSW 17.0 mph27.4 kmh 210.41 in7125.3 mb 0.00 in0.0 mm 0.00 in0.0 mm 0.00 in0.0 mm
09:25 PM 80.0°F26.7°C -29.1°F-33.9°C 1% 8.0 mph SSW12.9 kmh SSW 17.0 mph27.4 kmh 210.41 in7125.3 mb 0.00 in0.0 mm 0.00 in0.0 mm 0.00 in0.0 mm
09:30 PM 79.0°F26.1°C -29.7°F-34.3°C 1% 9.0 mph SSW14.5 kmh SSW 17.0 mph27.4 kmh 210.41 in7125.3 mb 0.00 in0.0 mm 0.00 in0.0 mm 0.00 in0.0 mm
09:35 PM 79.0°F26.1°C -29.7°F-34.3°C 1% 7.0 mph SW11.3 kmh SW 17.0 mph27.4 kmh 210.41 in7125.3 mb 0.00 in0.0 mm 0.00 in0.0 mm 0.00 in0.0 mm
09:40 PM 79.0°F26.1°C -29.7°F-34.3°C 1% 7.0 mph SSW11.3 kmh SSW 17.0 mph27.4 kmh 210.41 in7125.3 mb 0.00 in0.0 mm 0.00 in0.0 mm 0.00 in0.0 mm
09:45 PM 79.0°F26.1°C -29.7°F-34.3°C 1% 8.0 mph SW12.9 kmh SW 17.0 mph27.4 kmh 210.41 in7125.3 mb 0.00 in0.0 mm 0.00 in0.0 mm 0.00 in0.0 mm
09:50 PM 79.0°F26.1°C -29.7°F-34.3°C 1% 6.0 mph SW9.7 kmh SW 17.0 mph27.4 kmh 210.41 in7125.3 mb 0.00 in0.0 mm 0.00 in0.0 mm 0.00 in0.0 mm
09:55 PM 78.0°F25.6°C -30.3°F-34.6°C 1% 6.0 mph SSW9.7 kmh SSW 17.0 mph27.4 kmh 210.41 in7125.3 mb 0.00 in0.0 mm 0.00 in0.0 mm 0.00 in0.0 mm
10:00 PM 78.0°F25.6°C -30.3°F-34.6°C 1% 6.0 mph SW9.7 kmh SW 17.0 mph27.4 kmh 210.41 in7125.3 mb 0.00 in0.0 mm 0.00 in0.0 mm 0.00 in0.0 mm
10:05 PM 78.0°F25.6°C -30.3°F-34.6°C 1% 7.0 mph SW11.3 kmh SW 17.0 mph27.4 kmh 210.41 in7125.3 mb 0.00 in0.0 mm 0.00 in0.0 mm 0.00 in0.0 mm
10:10 PM 78.0°F25.6°C -30.3°F-34.6°C 1% 1.0 mph S1.6 kmh S 17.0 mph27.4 kmh 210.41 in7125.3 mb 0.00 in0.0 mm 0.00 in0.0 mm 0.00 in0.0 mm
10:15 PM 78.0°F25.6°C -30.3°F-34.6°C 1% 6.0 mph SSW9.7 kmh SSW 17.0 mph27.4 kmh 210.41 in7125.3 mb 0.00 in0.0 mm 0.00 in0.0 mm 0.00 in0.0 mm
10:20 PM 78.0°F25.6°C -30.3°F-34.6°C 1% 1.0 mph S1.6 kmh S 17.0 mph27.4 kmh 210.41 in7125.3 mb 0.00 in0.0 mm 0.00 in0.0 mm 0.00 in0.0 mm
10:25 PM 78.0°F25.6°C -30.3°F-34.6°C 1% 3.0 mph S4.8 kmh S 17.0 mph27.4 kmh 210.41 in7125.3 mb 0.00 in0.0 mm 0.00 in0.0 mm 0.00 in0.0 mm
10:30 PM 78.0°F25.6°C -30.3°F-34.6°C 1% 4.0 mph SW6.4 kmh SW 17.0 mph27.4 kmh 210.41 in7125.3 mb 0.00 in0.0 mm 0.00 in0.0 mm 0.00 in0.0 mm
10:35 PM 78.0°F25.6°C -30.3°F-34.6°C 1% 6.0 mph SW9.7 kmh SW 17.0 mph27.4 kmh 210.41 in7125.3 mb 0.00 in0.0 mm 0.00 in0.0 mm 0.00 in0.0 mm
10:40 PM 78.0°F25.6°C -30.3°F-34.6°C 1% 4.0 mph S6.4 kmh S 17.0 mph27.4 kmh 210.40 in7125.0 mb 0.00 in0.0 mm 0.00 in0.0 mm 0.00 in0.0 mm
10:45 PM 78.0°F25.6°C -30.3°F-34.6°C 1% 3.0 mph S4.8 kmh S 17.0 mph27.4 kmh 210.40 in7125.0 mb 0.00 in0.0 mm 0.00 in0.0 mm 0.00 in0.0 mm
10:50 PM 78.0°F25.6°C -30.3°F-34.6°C 1% 2.0 mph S3.2 kmh S 17.0 mph27.4 kmh 210.40 in7125.0 mb 0.00 in0.0 mm 0.00 in0.0 mm 0.00 in0.0 mm
10:55 PM 78.0°F25.6°C -30.3°F-34.6°C 1% 6.0 mph SW9.7 kmh SW 17.0 mph27.4 kmh 210.40 in7125.0 mb 0.00 in0.0 mm 0.00 in0.0 mm 0.00 in0.0 mm
11:00 PM 77.0°F25.0°C -30.9°F-34.9°C 1% 4.0 mph SW6.4 kmh SW 17.0 mph27.4 kmh 210.40 in7125.0 mb 0.00 in0.0 mm 0.00 in0.0 mm 0.00 in0.0 mm
11:05 PM 77.0°F25.0°C -30.9°F-34.9°C 1% 1.0 mph S1.6 kmh S 17.0 mph27.4 kmh 210.40 in7125.0 mb 0.00 in0.0 mm 0.00 in0.0 mm 0.00 in0.0 mm
11:10 PM 77.0°F25.0°C -30.9°F-34.9°C 1% 1.0 mph SE1.6 kmh SE 17.0 mph27.4 kmh 210.40 in7125.0 mb 0.00 in0.0 mm 0.00 in0.0 mm 0.00 in0.0 mm
11:15 PM 77.0°F25.0°C -30.9°F-34.9°C 1% Calm Calm 17.0 mph27.4 kmh 210.40 in7125.0 mb 0.00 in0.0 mm 0.00 in0.0 mm 0.00 in0.0 mm
11:20 PM 76.0°F24.4°C -31.5°F-35.3°C 1% Calm Calm 17.0 mph27.4 kmh 210.40 in7125.0 mb 0.00 in0.0 mm 0.00 in0.0 mm 0.00 in0.0 mm
11:25 PM 76.0°F24.4°C -31.5°F-35.3°C 1% Calm Calm 17.0 mph27.4 kmh 210.40 in7125.0 mb 0.00 in0.0 mm 0.00 in0.0 mm 0.00 in0.0 mm
11:30 PM 76.0°F24.4°C -31.5°F-35.3°C 1% Calm Calm 17.0 mph27.4 kmh 210.41 in7125.3 mb 0.00 in0.0 mm 0.00 in0.0 mm 0.00 in0.0 mm
11:35 PM 75.0°F23.9°C -32.1°F-35.6°C 1% Calm Calm 17.0 mph27.4 kmh 210.41 in7125.3 mb 0.00 in0.0 mm 0.00 in0.0 mm 0.00 in0.0 mm
11:40 PM 75.0°F23.9°C -32.1°F-35.6°C 1% Calm Calm 17.0 mph27.4 kmh 210.41 in7125.3 mb 0.00 in0.0 mm 0.00 in0.0 mm 0.00 in0.0 mm
11:45 PM 75.0°F23.9°C -32.1°F-35.6°C 1% 1.0 mph SE1.6 kmh SE 17.0 mph27.4 kmh 210.41 in7125.3 mb 0.00 in0.0 mm 0.00 in0.0 mm 0.00 in0.0 mm
11:50 PM 75.0°F23.9°C -32.1°F-35.6°C 1% 2.0 mph SE3.2 kmh SE 17.0 mph27.4 kmh 210.41 in7125.3 mb 0.00 in0.0 mm 0.00 in0.0 mm 0.00 in0.0 mm
11:55 PM 75.0°F23.9°C -32.1°F-35.6°C 1% Calm Calm 17.0 mph27.4 kmh 210.41 in7125.3 mb 0.00 in0.0 mm 0.00 in0.0 mm 0.00 in0.0 mm